Time;durP1;ratioP1;P1;durP2;ratioP2;P2;SDS_P1;SDS_P2;PMS_P1;PMS_P2;Temp;Humidity;BMP_temperature;BMP_pressure;BME280_temperature;BME280_humidity;BME280_pressure;Samples;Min_cycle;Max_cycle;Signal;HPM_P1;HPM_P2
2022/06/03 00:01:12;;;;;;;4.40;4.00;;;;;;;10.68;58.15;101422.09;4955353;28;20443;-23
2022/06/03 00:03:59;;;;;;;4.28;3.88;;;;;;;10.60;58.23;101430.88;4987766;28;20030;-23
2022/06/03 00:06:31;;;;;;;3.95;3.70;;;;;;;10.57;58.32;101427.34;4990714;28;20018;-23
2022/06/03 00:09:20;;;;;;;4.43;4.05;;;;;;;10.51;58.43;101423.78;4991523;28;20037;-23
2022/06/03 00:12:23;;;;;;;4.30;4.00;;;;;;;10.48;58.33;101429.09;4988582;28;20751;-23
2022/06/03 00:15:26;;;;;;;4.10;3.72;;;;;;;10.45;58.61;101428.19;4988238;28;20073;-23
2022/06/03 00:17:57;;;;;;;4.43;4.13;;;;;;;10.36;58.41;101421.97;4989558;28;20034;-23
2022/06/03 00:20:40;;;;;;;;;;;;;;;10.37;58.33;101426.34;4990409;28;20412;-23
2022/06/03 00:23:14;;;;;;;4.07;3.78;;;;;;;10.34;58.42;101428.97;4988623;28;19917;-23
2022/06/03 00:26:08;;;;;;;4.78;4.38;;;;;;;10.26;58.89;101426.31;4991347;28;20030;-23
2022/06/03 00:29:18;;;;;;;5.75;4.28;;;;;;;10.22;58.74;101423.66;4973798;28;20041;-23
2022/06/03 00:32:01;;;;;;;4.65;4.25;;;;;;;10.22;58.63;101431.56;4967963;28;20038;-24
2022/06/03 00:34:41;;;;;;;4.10;3.80;;;;;;;10.14;58.73;101424.50;4988202;28;20087;-23
2022/06/03 00:37:40;;;;;;;4.28;4.05;;;;;;;10.12;58.93;101421.00;4971109;28;20026;-23
2022/06/03 00:40:45;;;;;;;3.90;3.60;;;;;;;10.06;59.19;101426.22;4989965;28;20030;-23
2022/06/03 00:43:25;;;;;;;4.57;4.22;;;;;;;10.07;58.94;101427.13;4988501;28;20038;-24
2022/06/03 00:46:21;;;;;;;4.25;3.95;;;;;;;9.99;59.10;101421.78;4984626;28;20025;-24
2022/06/03 00:49:18;;;;;;;4.90;4.50;;;;;;;9.93;59.17;101419.09;4970892;28;20507;-24
2022/06/03 00:51:58;;;;;;;4.55;4.25;;;;;;;9.92;59.10;101417.34;4974424;28;20064;-24
2022/06/03 00:55:02;;;;;;;4.17;3.87;;;;;;;9.85;58.81;101413.81;4990330;28;21095;-24
2022/06/03 00:57:53;;;;;;;4.15;3.85;;;;;;;9.77;59.06;101416.38;4989943;28;20258;-24
2022/06/03 01:00:30;;;;;;;3.80;3.55;;;;;;;9.76;58.80;101406.72;4989299;28;20026;-24
2022/06/03 01:03:19;;;;;;;4.60;4.30;;;;;;;9.71;58.85;101413.72;4970865;28;20022;-24
2022/06/03 01:05:54;;;;;;;4.18;3.88;;;;;;;9.70;58.87;101404.94;4989808;28;20027;-24
2022/06/03 01:08:35;;;;;;;3.97;3.67;;;;;;;9.65;58.65;101411.03;4988920;28;20077;-24
2022/06/03 01:11:27;;;;;;;4.18;3.88;;;;;;;9.55;58.95;101411.00;4971188;28;20062;-24
2022/06/03 01:13:55;;;;;;;4.22;3.92;;;;;;;9.55;59.01;101412.75;4956616;28;20038;-24
2022/06/03 01:16:33;;;;;;;4.40;4.10;;;;;;;9.49;59.05;101405.69;4970885;28;20581;-24
2022/06/03 01:19:11;;;;;;;4.03;3.72;;;;;;;9.45;59.03;101409.16;4985461;28;20818;-24
2022/06/03 01:22:01;;;;;;;3.78;3.45;;;;;;;9.45;58.84;101409.16;4984244;28;20049;-24
2022/06/03 01:24:47;;;;;;;4.32;4.03;;;;;;;9.38;58.97;101416.13;4990092;28;20109;-24
2022/06/03 01:27:42;;;;;;;4.47;3.78;;;;;;;9.34;59.29;101409.09;4990493;28;20018;-24
2022/06/03 01:30:20;;;;;;;4.32;4.03;;;;;;;9.29;59.21;101414.31;4972950;28;20077;-24
2022/06/03 01:32:55;;;;;;;4.85;4.50;;;;;;;9.29;59.09;101406.41;4988124;28;20038;-24
2022/06/03 01:35:37;;;;;;;4.65;4.30;;;;;;;9.24;59.31;101398.47;4971744;28;20022;-24
2022/06/03 01:38:21;;;;;;;4.70;4.30;;;;;;;9.19;59.47;101399.31;4984730;28;20041;-24
2022/06/03 01:41:05;;;;;;;5.00;4.60;;;;;;;9.17;59.25;101406.31;4968459;28;20038;-24
2022/06/03 01:44:07;;;;;;;4.72;4.32;;;;;;;9.13;59.48;101409.78;4989003;28;20034;-24
2022/06/03 01:46:35;;;;;;;4.72;4.32;;;;;;;9.10;59.22;101408.88;4989104;28;20030;-24
2022/06/03 01:49:39;;;;;;;5.05;4.65;;;;;;;9.08;59.27;101410.63;4955811;28;20037;-24
2022/06/03 01:52:45;;;;;;;4.47;4.18;;;;;;;9.02;59.45;101405.31;4986334;28;20038;-24
2022/06/03 01:55:25;;;;;;;5.00;4.60;;;;;;;9.00;59.26;101408.81;4961636;28;20031;-24
2022/06/03 01:58:21;;;;;;;5.10;4.70;;;;;;;8.94;59.60;101401.72;4982604;28;20382;-24
2022/06/03 02:01:08;;;;;;;4.90;4.55;;;;;;;8.92;59.53;101401.72;4987479;28;20269;-24
2022/06/03 02:03:52;;;;;;;5.07;4.65;;;;;;;8.91;59.47;101405.22;4989493;28;20037;-24
2022/06/03 02:06:37;;;;;;;5.70;5.20;;;;;;;8.84;59.50;101399.00;4965244;28;20239;-24
2022/06/03 02:09:42;;;;;;;5.47;5.00;;;;;;;8.85;59.54;101394.63;4987382;28;20474;-24
2022/06/03 02:12:25;;;;;;;4.70;4.38;;;;;;;8.79;59.64;101394.56;4987520;28;20030;-24
2022/06/03 02:15:40;;;;;;;5.07;4.68;;;;;;;8.75;59.82;101395.41;4986684;28;20026;-24
2022/06/03 02:18:28;;;;;;;6.20;5.68;;;;;;;8.75;59.50;101382.25;4947083;28;20042;-24
2022/06/03 02:21:07;;;;;;;5.45;5.05;;;;;;;8.72;59.57;101372.56;4967707;28;20028;-24
2022/06/03 02:23:39;;;;;;;5.60;5.10;;;;;;;8.68;59.83;101371.69;4989024;28;20026;-24
2022/06/03 02:26:04;;;;;;;5.20;4.80;;;;;;;8.64;59.80;101375.13;4987146;28;20042;-24
2022/06/03 02:28:39;;;;;;;5.60;5.20;;;;;;;8.60;59.68;101374.22;4986636;28;20026;-24
2022/06/03 02:31:44;;;;;;;5.30;4.90;;;;;;;8.59;59.97;101375.09;4984591;28;20077;-24
2022/06/03 02:34:19;;;;;;;5.85;5.45;;;;;;;8.59;59.82;101364.56;4969485;28;20030;-24
2022/06/03 02:37:09;;;;;;;6.15;5.65;;;;;;;8.53;59.97;101369.75;4986052;28;20034;-24
2022/06/03 02:39:54;;;;;;;5.50;5.10;;;;;;;8.52;59.71;101372.34;4966062;28;20026;-24
2022/06/03 02:42:43;;;;;;;5.25;4.85;;;;;;;8.45;59.84;101369.66;4965294;28;20037;-24
2022/06/03 02:45:14;;;;;;;4.68;4.30;;;;;;;8.53;59.36;101372.38;4984779;28;20033;-24
2022/06/03 02:48:07;;;;;;;5.15;4.75;;;;;;;8.42;59.93;101366.09;4984393;28;20160;-24
2022/06/03 02:50:51;;;;;;;5.28;4.88;;;;;;;8.39;59.90;101366.94;4986837;28;20442;-24
2022/06/03 02:53:57;;;;;;;4.82;4.50;;;;;;;8.36;59.75;101369.53;4966999;28;20070;-24
2022/06/03 02:57:00;;;;;;;5.53;5.03;;;;;;;8.31;60.07;101372.09;4869260;29;20076;-23
2022/06/03 02:59:52;;;;;;;5.60;5.10;;;;;;;8.28;59.75;101372.09;4987477;28;20359;-24
2022/06/03 03:02:36;;;;;;;;;;;;;;;8.24;59.89;101359.78;4982501;28;20028;-23
2022/06/03 03:05:19;;;;;;;5.38;4.88;;;;;;;8.20;60.25;101358.84;4990008;28;20017;-23
2022/06/03 03:08:21;;;;;;;5.72;5.22;;;;;;;8.20;59.99;101373.72;4987920;28;20083;-23
2022/06/03 03:11:05;;;;;;;5.57;5.13;;;;;;;8.16;60.00;101370.19;4970655;28;20034;-23
2022/06/03 03:13:58;;;;;;;5.35;4.95;;;;;;;8.19;59.65;101382.47;4985763;28;20262;-24
2022/06/03 03:16:38;;;;;;;5.00;4.60;;;;;;;8.12;60.49;101375.38;4992420;28;20026;-24
2022/06/03 03:19:34;;;;;;;5.32;4.88;;;;;;;8.11;60.03;101384.13;4967343;28;20030;-24
2022/06/03 03:22:03;;;;;;;5.75;5.25;;;;;;;8.03;60.20;101384.91;4989756;28;20058;-24
2022/06/03 03:24:49;;;;;;;5.68;5.28;;;;;;;8.04;60.39;101378.78;4991936;28;20033;-24
2022/06/03 03:27:53;;;;;;;5.82;5.32;;;;;;;8.00;60.29;101377.00;4988762;28;20499;-24
2022/06/03 03:30:30;;;;;;;4.70;4.40;;;;;;;8.04;60.53;101368.28;4903545;29;20040;-24
2022/06/03 03:33:25;;;;;;;5.80;5.30;;;;;;;7.99;60.34;101376.97;4962136;28;20038;-24
2022/06/03 03:36:13;;;;;;;5.68;5.28;;;;;;;7.97;60.08;101376.94;4970020;28;20112;-24
2022/06/03 03:39:18;;;;;;;5.65;5.25;;;;;;;7.91;60.58;101382.13;4972347;28;20745;-24
2022/06/03 03:42:05;;;;;;;5.85;5.45;;;;;;;7.92;60.26;101389.16;4984578;28;20088;-24
2022/06/03 03:44:45;;;;;;;7.25;5.30;;;;;;;7.89;60.29;101386.47;4987700;28;20030;-24
2022/06/03 03:47:49;;;;;;;5.40;5.00;;;;;;;7.87;60.76;101386.44;4988642;28;20092;-23
2022/06/03 03:50:26;;;;;;;5.72;5.22;;;;;;;7.86;60.91;101386.41;4903712;29;20068;-23
2022/06/03 03:53:13;;;;;;;5.78;5.20;;;;;;;7.87;60.57;101378.56;4905892;29;20025;-24
2022/06/03 03:55:50;;;;;;;6.40;5.78;;;;;;;7.83;60.81;101379.38;4948016;28;20045;-24
2022/06/03 03:58:39;;;;;;;6.15;5.65;;;;;;;7.82;60.87;101383.78;4972877;28;20042;-24
2022/06/03 04:01:29;;;;;;;6.18;5.63;;;;;;;7.80;61.07;101385.50;4981581;28;20507;-24
2022/06/03 04:04:12;;;;;;;5.82;5.38;;;;;;;7.82;60.75;101396.91;4968146;28;20519;-24
2022/06/03 04:06:45;;;;;;;5.90;5.40;;;;;;;7.81;60.74;101395.13;4986818;28;20026;-24
2022/06/03 04:09:41;;;;;;;6.65;5.95;;;;;;;7.81;60.96;101391.63;4988970;28;20031;-23
2022/06/03 04:12:15;;;;;;;6.40;5.90;;;;;;;7.85;61.17;101387.28;4991425;28;20077;-24
2022/06/03 04:15:08;;;;;;;6.18;5.68;;;;;;;7.83;61.13;101385.53;4989783;28;20121;-23
2022/06/03 04:18:11;;;;;;;7.07;6.38;;;;;;;7.86;61.01;101400.44;4992100;28;20073;-24
2022/06/03 04:20:58;;;;;;;6.90;6.35;;;;;;;7.93;61.20;101396.16;4990471;28;20050;-23
2022/06/03 04:23:37;;;;;;;6.05;5.55;;;;;;;7.94;61.01;101393.56;4968581;28;20084;-23
2022/06/03 04:26:18;;;;;;;6.55;5.95;;;;;;;8.05;61.41;101390.19;4989621;28;20065;-23
2022/06/03 04:29:05;;;;;;;6.22;5.80;;;;;;;8.08;61.18;101398.13;4971630;28;20113;-23
2022/06/03 04:31:52;;;;;;;6.18;5.68;;;;;;;8.16;61.51;101398.19;4973422;28;20046;-23
2022/06/03 04:34:32;;;;;;;6.55;6.03;;;;;;;8.16;61.70;101399.09;4968095;28;20661;-23
2022/06/03 04:37:24;;;;;;;6.77;6.13;;;;;;;8.19;61.80;101393.00;4989481;28;20022;-23
2022/06/03 04:40:23;;;;;;;6.55;6.00;;;;;;;8.21;61.39;101399.16;4970415;28;20405;-23
2022/06/03 04:43:14;;;;;;;6.55;6.05;;;;;;;8.26;61.31;101389.56;4986719;28;20026;-23
2022/06/03 04:46:13;;;;;;;6.60;6.07;;;;;;;8.32;61.62;101397.56;4972441;28;20468;-23
2022/06/03 04:48:47;;;;;;;6.55;5.88;;;;;;;8.37;61.81;101399.34;4991554;28;20196;-23
2022/06/03 04:51:39;;;;;;;6.28;5.78;;;;;;;8.47;61.62;101396.81;4973728;28;20030;-23
2022/06/03 04:54:22;;;;;;;6.40;5.90;;;;;;;8.51;61.86;101387.25;4987094;28;20085;-23
2022/06/03 04:57:15;;;;;;;6.07;5.57;;;;;;;8.55;61.62;101383.81;4987304;28;20543;-23
2022/06/03 05:00:13;;;;;;;6.57;6.07;;;;;;;8.63;61.99;101377.75;4983697;28;20113;-23
2022/06/03 05:03:07;;;;;;;6.40;5.90;;;;;;;8.75;61.56;101385.75;4969171;28;20518;-23
2022/06/03 05:05:48;;;;;;;6.38;5.97;;;;;;;8.84;62.43;101390.25;4983466;28;20491;-23
2022/06/03 05:08:25;;;;;;;6.93;6.43;;;;;;;8.94;62.46;101381.53;4968403;28;21633;-23
2022/06/03 05:11:10;;;;;;;6.90;6.30;;;;;;;9.02;62.89;101367.56;4990781;28;20262;-23
2022/06/03 05:13:47;;;;;;;6.88;6.28;;;;;;;9.09;62.61;101362.41;4988703;28;20033;-23
2022/06/03 05:16:46;;;;;;;6.72;6.13;;;;;;;9.21;63.11;101360.72;4984233;28;20042;-23
2022/06/03 05:19:33;;;;;;;6.82;6.32;;;;;;;9.30;62.79;101360.78;4971514;28;20404;-22
2022/06/03 05:22:34;;;;;;;6.57;6.07;;;;;;;9.39;62.63;101359.09;4966425;28;20034;-23
2022/06/03 05:25:15;;;;;;;7.35;6.75;;;;;;;9.46;62.77;101360.88;4985675;28;20511;-22
2022/06/03 05:27:46;;;;;;;6.55;6.05;;;;;;;9.55;63.28;101360.97;4990008;28;20129;-22
2022/06/03 05:30:34;;;;;;;8.15;7.35;;;;;;;9.65;63.44;101354.00;4973307;28;20560;-22
2022/06/03 05:33:25;;;;;;;7.93;7.13;;;;;;;9.75;64.16;101357.56;4987638;28;20042;-22
2022/06/03 05:35:56;;;;;;;;;;;;;;;9.84;63.96;101351.47;4971004;28;20027;-22
2022/06/03 05:38:37;;;;;;;7.72;7.13;;;;;;;9.95;64.40;101351.50;4972194;28;20043;-23
2022/06/03 05:44:45;;;;;;;9.48;7.78;;;;;;;10.20;64.54;101348.97;4973077;28;20114;-22
2022/06/03 05:47:33;;;;;;;9.30;8.50;;;;;;;10.33;64.76;101350.75;4989499;28;20037;-22
2022/06/03 05:50:02;;;;;;;10.00;9.05;;;;;;;10.45;65.07;101349.06;4989641;28;20108;-23
2022/06/03 05:52:45;;;;;;;8.35;7.68;;;;;;;10.55;64.40;101356.13;4989064;28;20022;-23
2022/06/03 05:55:36;;;;;;;9.68;8.27;;;;;;;10.67;65.24;101349.97;4948721;28;20022;-23
2022/06/03 05:58:18;;;;;;;9.13;8.32;;;;;;;10.78;64.57;101342.09;4967551;28;20038;-23
2022/06/03 06:01:03;;;;;;;8.63;7.82;;;;;;;10.90;64.81;101336.81;4988209;28;20061;-23
2022/06/03 06:03:55;;;;;;;8.43;7.60;;;;;;;11.04;64.08;101336.81;4987082;28;20501;-23
2022/06/03 06:06:39;;;;;;;8.88;7.97;;;;;;;11.18;64.13;101341.22;4987318;28;20149;-23
2022/06/03 06:09:37;;;;;;;9.10;8.30;;;;;;;11.34;64.44;101334.13;4988243;28;20077;-23
2022/06/03 06:12:16;;;;;;;8.70;7.90;;;;;;;11.47;63.83;101332.34;4901254;28;20040;-23
2022/06/03 06:15:07;;;;;;;8.50;7.70;;;;;;;11.60;63.67;101333.19;4968305;28;20030;-23
2022/06/03 06:18:06;;;;;;;7.93;7.32;;;;;;;11.80;63.70;101329.59;4968961;28;20404;-23
2022/06/03 06:21:05;;;;;;;8.48;7.75;;;;;;;11.96;63.12;101322.50;4989746;28;20057;-23
2022/06/03 06:23:44;;;;;;;8.38;7.60;;;;;;;12.11;63.37;101318.94;4968641;28;20033;-23
2022/06/03 06:26:12;;;;;;;8.48;7.70;;;;;;;12.24;63.13;101326.81;4988851;28;20480;-23
2022/06/03 06:28:52;;;;;;;7.88;7.18;;;;;;;12.40;63.36;101324.94;4987224;28;20063;-23
2022/06/03 06:31:44;;;;;;;10.23;7.00;;;;;;;12.60;63.06;101324.81;4971680;28;20400;-23
2022/06/03 06:34:25;;;;;;;7.78;6.90;;;;;;;12.74;63.40;101319.41;4989396;28;20027;-23
2022/06/03 06:37:12;;;;;;;7.55;6.60;;;;;;;12.89;63.20;101318.41;4986858;28;20171;-23
2022/06/03 06:39:43;;;;;;;9.07;6.40;;;;;;;13.06;62.70;101314.72;4969988;28;20096;-23
2022/06/03 06:42:22;;;;;;;7.60;7.00;;;;;;;13.19;62.39;101316.38;4987824;28;20019;-23
2022/06/03 06:45:21;;;;;;;7.05;6.47;;;;;;;13.38;62.41;101310.00;4985166;28;20050;-23
2022/06/03 06:47:55;;;;;;;6.32;5.82;;;;;;;13.56;62.39;101314.25;4987898;28;20092;-23
2022/06/03 06:50:22;;;;;;;6.45;5.95;;;;;;;13.70;62.54;101314.97;4988416;28;20404;-23
2022/06/03 06:53:12;;;;;;;6.47;5.88;;;;;;;13.86;63.22;101306.84;4971681;28;20041;-23
2022/06/03 06:55:55;;;;;;;6.43;5.85;;;;;;;13.97;62.28;101299.63;4951883;28;21502;-23
2022/06/03 06:58:25;;;;;;;6.88;6.28;;;;;;;14.17;62.03;101305.56;4970977;28;20038;-23
2022/06/03 07:00:51;;;;;;;6.30;5.78;;;;;;;14.34;62.29;101302.66;4986916;28;20117;-23
2022/06/03 07:03:43;;;;;;;6.22;5.72;;;;;;;14.50;61.60;101290.03;4971893;28;20022;-23
2022/06/03 07:06:24;;;;;;;6.50;4.88;;;;;;;14.72;62.11;101282.63;4958334;28;20516;-23
2022/06/03 07:09:11;;;;;;;5.70;5.15;;;;;;;14.88;61.54;101282.38;4985476;28;20033;-23
2022/06/03 07:11:52;;;;;;;5.35;4.85;;;;;;;15.04;61.11;101284.75;4986050;28;20031;-23
2022/06/03 07:14:21;;;;;;;5.03;4.63;;;;;;;15.20;60.78;101288.88;4969874;28;20495;-23
2022/06/03 07:19:49;;;;;;;5.10;4.60;;;;;;;15.52;60.58;101282.06;4985425;28;20137;-23
2022/06/03 07:22:23;;;;;;;4.97;4.57;;;;;;;15.65;60.34;101287.13;4984533;28;20038;-23
2022/06/03 07:25:03;;;;;;;4.43;4.13;;;;;;;15.81;59.26;101284.16;4975151;28;20030;-23
2022/06/03 07:27:43;;;;;;;4.85;4.47;;;;;;;15.97;58.79;101280.28;4970270;28;20065;-23
2022/06/03 07:30:17;;;;;;;4.63;4.22;;;;;;;16.08;59.15;101276.50;4988145;28;20105;-23
2022/06/03 07:32:47;;;;;;;4.70;4.38;;;;;;;16.24;59.11;101269.91;4970740;28;20109;-23
2022/06/03 07:35:33;;;;;;;4.30;4.00;;;;;;;16.40;59.15;101266.88;4972147;28;20041;-23
2022/06/03 07:38:05;;;;;;;5.25;4.32;;;;;;;16.53;58.48;101257.69;4971077;28;20045;-23
2022/06/03 07:40:41;;;;;;;4.40;4.10;;;;;;;16.70;58.65;101245.75;4986820;28;20058;-23
2022/06/03 07:43:39;;;;;;;4.10;3.80;;;;;;;16.86;58.68;101245.34;4969979;28;20037;-23
2022/06/03 07:46:11;;;;;;;3.80;3.50;;;;;;;17.07;57.58;101243.91;4968039;28;20041;-23
2022/06/03 07:48:37;;;;;;;4.07;3.75;;;;;;;17.20;57.72;101241.78;4968221;28;20372;-23
2022/06/03 07:51:09;;;;;;;4.18;3.78;;;;;;;17.31;57.08;101239.69;4957266;28;20031;-23
2022/06/03 07:53:51;;;;;;;3.63;3.33;;;;;;;17.51;57.36;101242.72;4992414;28;20431;-23
2022/06/03 07:56:27;;;;;;;3.83;3.55;;;;;;;17.65;57.61;101242.31;4986306;28;20472;-23
2022/06/03 07:58:59;;;;;;;7.13;3.55;;;;;;;17.74;56.92;101241.16;4972472;28;20048;-23
2022/06/03 08:01:31;;;;;;;3.33;3.13;;;;;;;17.85;56.51;101239.03;4993165;28;20018;-23
2022/06/03 08:03:56;;;;;;;3.97;3.67;;;;;;;17.96;56.47;101241.38;4992179;28;20025;-23
2022/06/03 08:12:27;;;;;;;3.60;3.33;;;;;;;18.44;55.38;101241.69;4975612;28;20042;-23
2022/06/03 08:14:53;;;;;;;3.33;3.03;;;;;;;18.60;55.94;101236.69;4992653;28;20488;-23
2022/06/03 08:17:19;;;;;;;3.22;3.03;;;;;;;18.76;55.36;101237.03;4990497;28;20030;-23
2022/06/03 08:19:45;;;;;;;3.53;3.30;;;;;;;18.91;54.77;101235.59;4989888;28;20520;-23
2022/06/03 08:22:13;;;;;;;3.20;2.92;;;;;;;19.02;55.69;101237.91;4960223;28;20034;-23
2022/06/03 08:24:40;;;;;;;3.42;3.22;;;;;;;19.21;55.36;101231.94;4972654;28;20628;-23
2022/06/03 08:27:13;;;;;;;3.25;2.95;;;;;;;19.40;55.38;101241.97;4962514;28;20473;-23
2022/06/03 08:29:44;;;;;;;3.00;2.80;;;;;;;19.52;54.50;101246.84;4988528;28;20062;-23
2022/06/03 08:32:17;;;;;;;3.30;3.10;;;;;;;19.68;55.05;101246.25;4990071;28;20018;-23
2022/06/03 08:34:47;;;;;;;3.25;3.00;;;;;;;19.82;54.37;101240.38;4986345;28;20074;-23
2022/06/03 08:37:16;;;;;;;3.08;2.88;;;;;;;19.86;52.98;101237.53;4954087;28;20186;-23
2022/06/03 08:39:43;;;;;;;3.30;3.10;;;;;;;20.00;55.08;101223.63;4990368;28;20540;-23
2022/06/03 08:42:17;;;;;;;3.35;3.15;;;;;;;20.16;53.67;101231.03;4989782;28;20495;-23
2022/06/03 08:45:01;;;;;;;3.33;3.10;;;;;;;20.24;53.31;101222.69;4989369;28;20034;-23
2022/06/03 08:47:35;;;;;;;3.17;2.97;;;;;;;20.38;53.82;101220.28;4988898;28;20050;-23
2022/06/03 08:50:06;;;;;;;2.70;2.60;;;;;;;20.52;53.74;101218.84;4991040;28;20100;-23
2022/06/03 08:52:56;;;;;;;3.30;3.05;;;;;;;20.59;52.28;101211.41;4989367;28;20026;-23
2022/06/03 08:55:35;;;;;;;2.80;2.70;;;;;;;20.77;53.15;101205.25;4990645;28;20517;-23
2022/06/03 08:58:07;;;;;;;2.90;2.72;;;;;;;20.80;51.49;101204.25;4990311;28;20495;-23
2022/06/03 09:00:58;;;;;;;2.97;2.78;;;;;;;20.99;51.91;101206.13;4969222;28;20409;-23
2022/06/03 09:03:24;;;;;;;;;;;;;;;21.04;52.01;101206.78;4973682;28;20053;-23
2022/06/03 09:06:11;;;;;;;2.97;2.78;;;;;;;21.21;51.79;101213.22;4969673;28;19914;-23
2022/06/03 09:08:43;;;;;;;2.67;2.50;;;;;;;21.38;52.60;101210.63;4973352;28;20033;-23
2022/06/03 09:11:44;;;;;;;4.63;2.50;;;;;;;21.51;51.66;101204.72;4972841;28;20427;-23
2022/06/03 09:14:15;;;;;;;2.67;2.53;;;;;;;21.67;52.95;101211.06;4989231;28;20035;-23
2022/06/03 09:16:41;;;;;;;3.05;2.85;;;;;;;21.82;52.19;101208.63;4972023;28;20050;-23
2022/06/03 09:19:12;;;;;;;2.63;2.50;;;;;;;21.89;51.38;101210.09;4988685;28;20457;-23
2022/06/03 09:21:41;;;;;;;2.97;2.75;;;;;;;22.02;52.60;101205.00;4970978;28;20042;-23
2022/06/03 09:24:11;;;;;;;2.63;2.30;;;;;;;22.11;51.22;101198.28;4988537;28;20034;-23
2022/06/03 09:26:42;;;;;;;3.17;2.97;;;;;;;22.28;50.65;101204.63;4989918;28;20081;-23
2022/06/03 09:29:11;;;;;;;2.70;2.50;;;;;;;22.42;50.48;101195.88;4956638;28;20484;-23
2022/06/03 09:31:37;;;;;;;2.88;2.67;;;;;;;22.53;49.98;101198.00;4968877;28;20030;-23
2022/06/03 09:34:05;;;;;;;2.35;2.10;;;;;;;22.59;49.90;101189.66;4968434;28;20088;-23
2022/06/03 09:36:33;;;;;;;2.55;2.35;;;;;;;22.66;50.17;101188.38;4974089;28;20029;-23
2022/06/03 09:39:01;;;;;;;2.70;2.50;;;;;;;22.77;49.85;101184.28;4971581;28;20023;-23
2022/06/03 09:41:31;;;;;;;2.92;2.72;;;;;;;22.86;49.67;101189.16;4971153;28;20491;-23
2022/06/03 09:43:57;;;;;;;2.80;2.60;;;;;;;22.96;49.62;101178.78;4989789;28;20102;-23
2022/06/03 09:46:26;;;;;;;2.60;2.40;;;;;;;23.01;48.78;101179.38;4964211;28;20034;-23
2022/06/03 09:48:52;;;;;;;2.22;2.13;;;;;;;23.12;50.14;101178.81;4984064;28;20030;-23
2022/06/03 09:51:55;;;;;;;2.45;2.25;;;;;;;23.20;49.06;101176.56;4985667;28;20048;-23
2022/06/03 09:54:12;;;;;;;2.60;2.40;;;;;;;23.31;49.01;101177.81;4986217;28;20068;-23
2022/06/03 09:56:38;;;;;;;2.20;2.10;;;;;;;23.38;47.82;101179.25;4969497;28;20175;-23
2022/06/03 09:59:04;;;;;;;2.20;2.08;;;;;;;23.49;48.45;101175.06;4970119;28;20034;-23
2022/06/03 10:01:30;;;;;;;2.58;2.38;;;;;;;23.51;44.18;101171.34;4987863;28;20045;-23
2022/06/03 10:03:58;;;;;;;3.30;2.40;;;;;;;23.53;45.70;101176.63;4969853;28;20140;-23
2022/06/03 10:14:36;;;;;;;2.78;2.58;;;;;;;24.07;47.69;101175.38;4972768;28;20096;-24
2022/06/03 10:17:01;;;;;;;2.53;2.33;;;;;;;24.18;47.52;101169.41;4981320;28;20042;-24
2022/06/03 10:19:26;;;;;;;2.45;2.20;;;;;;;24.28;47.39;101167.03;4967794;28;20053;-24
2022/06/03 10:21:54;;;;;;;2.28;2.15;;;;;;;24.32;47.53;101173.97;4985762;28;20451;-24
2022/06/03 10:24:22;;;;;;;2.00;1.90;;;;;;;24.43;47.45;101166.13;4986583;28;20022;-24
2022/06/03 10:26:52;;;;;;;2.63;2.42;;;;;;;24.50;47.28;101160.38;4986195;28;20042;-24
2022/06/03 10:29:21;;;;;;;2.60;2.33;;;;;;;24.56;47.72;101155.47;4988647;28;20392;-24
2022/06/03 10:31:52;;;;;;;2.33;2.22;;;;;;;24.65;47.27;101159.44;4987219;28;20026;-24
2022/06/03 10:34:22;;;;;;;2.28;2.08;;;;;;;24.73;46.69;101149.03;4986766;28;20516;-24
2022/06/03 10:36:49;;;;;;;;;;;;;;;24.91;46.93;101150.72;4988036;28;20105;-24
2022/06/03 10:39:19;;;;;;;2.15;2.05;;;;;;;24.97;46.76;101148.47;4989371;28;19910;-24
2022/06/03 10:41:53;;;;;;;2.17;2.08;;;;;;;25.04;46.60;101143.56;4988703;28;20022;-24
2022/06/03 10:44:21;;;;;;;2.55;2.10;;;;;;;25.14;46.44;101146.53;4988537;28;20081;-24
2022/06/03 10:47:17;;;;;;;2.10;2.00;;;;;;;25.14;46.27;101146.53;4970009;28;20645;-24
2022/06/03 10:49:55;;;;;;;2.20;2.10;;;;;;;25.17;46.08;101143.66;4983472;28;20046;-24
2022/06/03 11:01:32;;;;;;;2.33;2.13;;;;;;;25.53;44.87;101113.50;4988331;28;20037;-24
2022/06/03 11:03:58;;;;;;;2.45;2.25;;;;;;;25.55;47.85;101115.16;4986994;28;20025;-24
2022/06/03 11:06:36;;;;;;;2.47;2.28;;;;;;;25.61;45.90;101093.16;4985083;28;20076;-24
2022/06/03 11:09:05;;;;;;;2.67;2.10;;;;;;;25.66;44.85;101090.16;4967616;28;20030;-24
2022/06/03 11:11:46;;;;;;;2.13;2.03;;;;;;;25.68;45.18;101082.81;4984027;28;20038;-24
2022/06/03 11:14:36;;;;;;;2.05;1.95;;;;;;;25.77;44.66;101075.06;4985505;28;20064;-23
2022/06/03 11:17:33;;;;;;;2.08;1.98;;;;;;;25.83;44.97;101071.94;4985972;28;20038;-23
2022/06/03 11:19:59;;;;;;;2.22;2.13;;;;;;;25.88;44.33;101080.63;4985837;28;20559;-23
2022/06/03 11:22:27;;;;;;;3.05;2.00;;;;;;;25.95;44.29;101073.81;4987840;28;20026;-23
2022/06/03 11:25:02;;;;;;;2.72;2.20;;;;;;;26.04;45.06;101068.75;4990855;28;20023;-23
2022/06/03 11:27:37;;;;;;;2.55;2.35;;;;;;;26.13;45.15;101057.28;4990497;28;20037;-23
2022/06/03 11:30:08;;;;;;;2.30;2.20;;;;;;;26.25;44.48;101052.88;4973290;28;20037;-23
2022/06/03 11:32:34;;;;;;;2.28;2.13;;;;;;;26.30;44.86;101053.44;4972182;28;21163;-23
2022/06/03 11:35:04;;;;;;;2.22;2.13;;;;;;;26.41;44.48;101055.41;4972953;28;20022;-23
2022/06/03 11:37:36;;;;;;;2.33;2.17;;;;;;;26.50;44.65;101049.34;4957348;28;20531;-23
2022/06/03 11:40:07;;;;;;;2.58;2.20;;;;;;;26.55;44.55;101035.50;4974560;28;20034;-23
2022/06/03 11:42:42;;;;;;;2.20;2.10;;;;;;;26.63;44.79;101034.94;4974269;28;20285;-23
2022/06/03 11:45:25;;;;;;;2.78;2.63;;;;;;;26.66;42.88;101029.31;4968215;28;20045;-23
2022/06/03 11:48:03;;;;;;;2.63;2.42;;;;;;;26.71;44.70;101021.72;4972172;28;20027;-23
2022/06/03 11:50:29;;;;;;;2.22;2.08;;;;;;;26.84;43.75;101020.84;4986079;28;20078;-23
2022/06/03 11:52:56;;;;;;;2.05;1.95;;;;;;;26.94;43.16;101027.28;4988815;28;20306;-23
2022/06/03 11:55:24;;;;;;;2.08;1.95;;;;;;;26.97;43.40;101010.88;4968546;28;20053;-23
2022/06/03 11:58:32;;;;;;;2.45;2.28;;;;;;;26.97;44.73;101012.72;4971447;28;20034;-23
2022/06/03 12:00:59;;;;;;;2.15;2.05;;;;;;;27.03;43.79;101014.97;4967251;28;20763;-23
2022/06/03 12:03:30;;;;;;;3.67;2.17;;;;;;;27.14;43.07;101004.19;4986957;28;20035;-23
2022/06/03 12:06:00;;;;;;;2.50;2.20;;;;;;;27.19;42.71;101009.28;4989304;28;20054;-23
2022/06/03 12:08:56;;;;;;;2.65;2.42;;;;;;;27.22;42.85;100997.34;4971187;28;20113;-23
2022/06/03 12:14:24;;;;;;;2.10;2.00;;;;;;;27.24;42.05;100990.84;4968396;28;20045;-23
2022/06/03 12:17:08;;;;;;;2.33;2.08;;;;;;;27.31;42.74;100995.78;4987690;28;20041;-23
2022/06/03 12:19:45;;;;;;;2.03;1.92;;;;;;;27.34;42.91;101003.69;4987186;28;20163;-23
2022/06/03 12:22:16;;;;;;;2.15;2.05;;;;;;;27.35;42.54;100986.47;4987873;28;20058;-23
2022/06/03 12:24:44;;;;;;;2.08;1.98;;;;;;;27.36;42.92;100980.06;4988101;28;20026;-23
2022/06/03 12:27:20;;;;;;;2.00;1.90;;;;;;;27.42;42.82;100982.31;4988581;28;20162;-23
2022/06/03 12:29:56;;;;;;;2.58;2.10;;;;;;;27.41;43.18;100980.59;4972197;28;20132;-23
2022/06/03 12:32:30;;;;;;;2.00;1.90;;;;;;;27.43;44.61;100975.91;4988257;28;20037;-23
2022/06/03 12:35:33;;;;;;;2.35;2.15;;;;;;;27.47;43.15;100987.38;4989539;28;20400;-22
2022/06/03 12:38:26;;;;;;;2.55;2.35;;;;;;;27.50;42.98;100979.88;4986399;28;20096;-23
2022/06/03 12:40:57;;;;;;;2.10;1.90;;;;;;;27.59;43.21;100977.44;4989608;28;20140;-23
2022/06/03 12:43:28;;;;;;;2.22;2.10;;;;;;;27.66;43.31;100979.59;4971234;28;20026;-23
2022/06/03 12:46:09;;;;;;;1.92;1.83;;;;;;;27.68;43.58;100976.78;4965847;28;20497;-23
2022/06/03 12:48:44;;;;;;;2.13;2.03;;;;;;;27.74;43.29;100973.56;4983769;28;20370;-23
2022/06/03 12:51:23;;;;;;;1.80;1.60;;;;;;;27.77;43.30;100970.63;4990261;28;20033;-23
2022/06/03 12:53:50;;;;;;;2.03;1.92;;;;;;;27.82;42.41;100972.09;4974225;28;20038;-23
2022/06/03 12:56:26;;;;;;;1.90;1.80;;;;;;;27.86;43.06;100976.31;4971998;28;20032;-23
2022/06/03 12:58:58;;;;;;;2.75;1.90;;;;;;;27.90;42.41;100972.38;4969119;28;20046;-23
2022/06/03 13:01:30;;;;;;;2.05;1.95;;;;;;;27.91;42.20;100972.25;4989901;28;20069;-23
2022/06/03 13:04:34;;;;;;;3.35;2.47;;;;;;;27.95;42.23;100963.88;4971829;28;20057;-23